createdAt,value
2023-07-24T00:00:27.664Z,18.70
2023-07-24T00:04:21.528Z,18.70
2023-07-24T00:07:49.498Z,18.70
2023-07-24T00:11:21.187Z,18.70
2023-07-24T00:15:00.337Z,18.70
2023-07-24T00:18:42.340Z,18.78
2023-07-24T00:22:13.748Z,18.72
2023-07-24T00:25:54.222Z,18.70
2023-07-24T00:29:44.868Z,18.70
2023-07-24T00:33:22.942Z,18.70
2023-07-24T00:37:11.910Z,18.60
2023-07-24T00:40:51.088Z,18.60
2023-07-24T00:44:32.917Z,18.60
2023-07-24T00:48:14.811Z,18.60
2023-07-24T00:52:07.751Z,18.60
2023-07-24T00:55:49.815Z,18.50
2023-07-24T00:59:28.698Z,18.28
2023-07-24T01:03:18.271Z,18.08
2023-07-24T01:06:50.034Z,17.90
2023-07-24T01:10:31.721Z,17.78
2023-07-24T01:14:14.650Z,17.68
2023-07-24T01:17:43.867Z,17.60
2023-07-24T01:21:32.924Z,17.60
2023-07-24T01:25:33.779Z,17.60
2023-07-24T01:29:21.673Z,17.60
2023-07-24T01:33:04.209Z,17.66
2023-07-24T01:36:53.297Z,17.60
2023-07-24T01:40:15.884Z,17.60
2023-07-24T01:43:53.628Z,17.60
2023-07-24T01:47:42.692Z,17.60
2023-07-24T01:51:31.712Z,17.60
2023-07-24T01:55:20.723Z,17.50
2023-07-24T01:58:59.857Z,17.50
2023-07-24T02:02:49.015Z,17.40
2023-07-24T02:06:38.340Z,17.30
2023-07-24T02:10:27.332Z,17.10
2023-07-24T02:14:10.134Z,17.02
2023-07-24T02:17:59.362Z,17.00
2023-07-24T02:21:44.551Z,17.00
2023-07-24T02:25:33.716Z,16.90
2023-07-24T02:29:15.221Z,16.90
2023-07-24T02:33:04.510Z,16.90
2023-07-24T02:36:33.467Z,16.82
2023-07-24T02:40:22.869Z,16.88
2023-07-24T02:44:11.872Z,16.80
2023-07-24T02:48:00.888Z,16.80
2023-07-24T02:51:50.187Z,16.74
2023-07-24T02:55:39.298Z,16.70
2023-07-24T02:59:28.086Z,16.70
2023-07-24T03:03:17.189Z,16.60
2023-07-24T03:07:06.301Z,16.38
2023-07-24T03:10:48.017Z,16.30
2023-07-24T03:14:37.120Z,16.20
2023-07-24T03:18:26.475Z,16.18
2023-07-24T03:22:15.437Z,16.06
2023-07-24T03:25:57.676Z,15.90
2023-07-24T03:29:26.570Z,15.88
2023-07-24T03:33:15.566Z,15.80
2023-07-24T03:37:04.632Z,15.80
2023-07-24T03:40:53.946Z,15.80
2023-07-24T03:44:43.147Z,15.80
2023-07-24T03:48:25.873Z,15.80
2023-07-24T03:52:14.900Z,15.80
2023-07-24T03:56:04.155Z,15.90
2023-07-24T03:59:53.404Z,16.00
2023-07-24T04:03:42.709Z,16.10
2023-07-24T04:07:31.666Z,16.10
2023-07-24T04:11:20.739Z,16.10
2023-07-24T04:15:02.920Z,16.20
2023-07-24T04:18:44.291Z,16.30
2023-07-24T04:22:23.246Z,16.30
2023-07-24T04:26:12.419Z,16.40
2023-07-24T04:30:01.380Z,16.50
2023-07-24T04:33:50.432Z,16.60
2023-07-24T04:37:39.447Z,16.70
2023-07-24T04:41:18.401Z,16.70
2023-07-24T04:45:07.355Z,16.72
2023-07-24T04:48:56.098Z,16.72
2023-07-24T04:52:27.564Z,16.80
2023-07-24T04:56:15.016Z,16.90
2023-07-24T05:00:04.050Z,17.00
2023-07-24T05:03:28.947Z,17.00
2023-07-24T05:07:01.144Z,17.10
2023-07-24T05:10:32.805Z,17.20
2023-07-24T05:14:22.267Z,17.30
2023-07-24T05:17:58.501Z,17.38
2023-07-24T05:21:36.571Z,17.50
2023-07-24T05:24:50.360Z,17.60
2023-07-24T05:28:39.522Z,17.70
2023-07-24T05:32:11.451Z,17.80
2023-07-24T05:35:44.443Z,17.90
2023-07-24T05:39:15.915Z,18.00
2023-07-24T05:42:46.915Z,18.10
2023-07-24T05:46:36.092Z,18.20
2023-07-24T05:50:25.198Z,18.30
2023-07-24T05:54:14.498Z,18.50
2023-07-24T05:58:03.626Z,18.60
2023-07-24T06:01:35.483Z,18.70
2023-07-24T06:05:23.384Z,18.80
2023-07-24T06:09:12.551Z,18.90
2023-07-24T06:13:00.685Z,19.02
2023-07-24T06:16:29.985Z,19.20
2023-07-24T06:19:41.697Z,19.30
2023-07-24T06:23:07.442Z,19.36
2023-07-24T06:26:46.907Z,19.46
2023-07-24T06:30:16.683Z,19.50
2023-07-24T06:33:22.961Z,19.60
2023-07-24T06:36:49.843Z,19.70
2023-07-24T06:40:05.902Z,19.80
2023-07-24T06:43:53.918Z,19.88
2023-07-24T06:47:02.726Z,19.94
2023-07-24T06:50:31.019Z,20.10
2023-07-24T06:53:42.815Z,20.20
2023-07-24T06:57:23.685Z,20.30
2023-07-24T07:00:45.678Z,20.40
2023-07-24T07:03:36.357Z,20.50
2023-07-24T07:06:51.574Z,20.60
2023-07-24T07:10:06.522Z,20.70
2023-07-24T07:12:53.956Z,20.80
2023-07-24T07:15:59.282Z,20.96
2023-07-24T07:19:08.195Z,21.00
2023-07-24T07:22:37.442Z,21.10
2023-07-24T07:26:08.320Z,21.30
2023-07-24T07:29:19.973Z,21.40
2023-07-24T07:32:28.825Z,21.60
2023-07-24T07:35:42.094Z,21.72
2023-07-24T07:38:40.542Z,21.88
2023-07-24T07:41:48.110Z,22.00
2023-07-24T07:45:27.193Z,22.10
2023-07-24T07:48:39.653Z,22.30
2023-07-24T07:51:39.774Z,22.40
2023-07-24T07:54:51.453Z,22.60
2023-07-24T07:58:10.637Z,22.80
2023-07-24T08:00:55.105Z,22.90
2023-07-24T08:04:18.202Z,23.10
2023-07-24T08:07:07.037Z,23.30
2023-07-24T08:10:05.981Z,23.40
2023-07-24T08:13:34.966Z,23.58
2023-07-24T08:16:18.722Z,23.70
2023-07-24T08:19:30.877Z,23.84
2023-07-24T08:22:13.276Z,24.00
2023-07-24T08:25:23.514Z,24.18
2023-07-24T08:28:30.985Z,24.30
2023-07-24T08:31:16.288Z,24.40
2023-07-24T08:34:20.711Z,24.50
2023-07-24T08:37:32.291Z,24.60
2023-07-24T08:40:12.492Z,24.70
2023-07-24T08:42:51.357Z,24.80
2023-07-24T08:45:33.250Z,25.00
2023-07-24T08:48:50.619Z,25.10
2023-07-24T08:51:34.574Z,25.20
2023-07-24T08:54:36.651Z,25.30
2023-07-24T08:57:17.062Z,25.50
2023-07-24T09:00:08.222Z,25.60
2023-07-24T09:02:56.741Z,25.60
2023-07-24T09:06:23.065Z,25.70
2023-07-24T09:08:58.976Z,25.76
2023-07-24T09:11:35.672Z,25.90
2023-07-24T09:14:48.079Z,26.00
2023-07-24T09:17:38.480Z,26.10
2023-07-24T09:20:32.051Z,26.20
2023-07-24T09:23:15.451Z,26.40
2023-07-24T09:25:47.986Z,26.50
2023-07-24T09:28:22.965Z,26.70
2023-07-24T09:31:01.745Z,26.70
2023-07-24T09:33:56.210Z,26.80
2023-07-24T09:36:49.350Z,26.90
2023-07-24T09:39:40.610Z,27.00
2023-07-24T09:42:11.445Z,27.10
2023-07-24T09:44:45.531Z,27.20
2023-07-24T09:48:09.984Z,27.22
2023-07-24T09:50:59.711Z,27.30
2023-07-24T09:53:55.398Z,27.40
2023-07-24T09:56:43.458Z,27.50
2023-07-24T09:59:39.308Z,27.50
2023-07-24T10:02:07.730Z,27.60
2023-07-24T10:04:57.912Z,27.70
2023-07-24T10:07:31.537Z,27.80
2023-07-24T10:10:22.353Z,27.90
2023-07-24T10:12:53.707Z,28.02
2023-07-24T10:15:43.402Z,28.20
2023-07-24T10:18:14.770Z,28.38
2023-07-24T10:20:56.345Z,28.50
2023-07-24T10:23:49.702Z,28.70
2023-07-24T10:26:29.871Z,28.84
2023-07-24T10:29:03.355Z,29.02
2023-07-24T10:31:44.463Z,29.20
2023-07-24T10:34:15.336Z,29.30
2023-07-24T10:36:52.622Z,29.40
2023-07-24T10:39:23.427Z,29.40
2023-07-24T10:41:56.680Z,29.54
2023-07-24T10:44:44.017Z,29.60
2023-07-24T10:47:12.841Z,29.80
2023-07-24T10:49:49.835Z,29.90
2023-07-24T10:52:29.473Z,30.20
2023-07-24T10:55:00.298Z,30.22
2023-07-24T10:57:29.775Z,30.30
2023-07-24T10:59:57.949Z,30.50
2023-07-24T11:02:26.353Z,30.60
2023-07-24T11:04:54.665Z,30.70
2023-07-24T11:07:23.282Z,30.80
2023-07-24T11:09:54.461Z,31.00
2023-07-24T11:12:23.977Z,31.20
2023-07-24T11:14:55.332Z,31.30
2023-07-24T11:17:23.672Z,31.28
2023-07-24T11:19:51.935Z,31.40
2023-07-24T11:22:22.955Z,31.70
2023-07-24T11:24:51.148Z,31.70
2023-07-24T11:27:20.289Z,31.64
2023-07-24T11:29:50.549Z,31.46
2023-07-24T11:32:21.983Z,31.08
2023-07-24T11:34:51.055Z,31.00
2023-07-24T11:37:22.294Z,31.00
2023-07-24T11:40:06.033Z,30.84
2023-07-24T11:42:34.090Z,30.68
2023-07-24T11:45:02.373Z,30.80
2023-07-24T11:47:33.434Z,31.00
2023-07-24T11:50:01.807Z,31.30
2023-07-24T11:52:49.164Z,31.50
2023-07-24T11:55:18.951Z,31.58
2023-07-24T11:58:00.017Z,31.80
2023-07-24T12:00:29.174Z,31.90
2023-07-24T12:03:07.822Z,31.90
2023-07-24T12:05:41.085Z,32.00
2023-07-24T12:08:12.066Z,32.18
2023-07-24T12:10:40.827Z,32.30
2023-07-24T12:13:09.020Z,32.50
2023-07-24T12:15:37.509Z,32.50
2023-07-24T12:18:06.154Z,32.60
2023-07-24T12:20:36.016Z,32.68
2023-07-24T12:23:04.181Z,32.76
2023-07-24T12:25:32.219Z,32.80
2023-07-24T12:28:00.351Z,32.80
2023-07-24T12:30:28.543Z,32.72
2023-07-24T12:32:56.874Z,32.76
2023-07-24T12:35:25.095Z,32.80
2023-07-24T12:37:53.195Z,32.82
2023-07-24T12:40:21.298Z,32.84
2023-07-24T12:42:49.490Z,32.78
2023-07-24T12:45:17.631Z,32.80
2023-07-24T12:47:46.588Z,32.64
2023-07-24T12:50:14.760Z,32.52
2023-07-24T12:52:42.836Z,32.46
2023-07-24T12:55:11.504Z,32.50
2023-07-24T12:57:39.634Z,32.46
2023-07-24T13:00:09.234Z,32.48
2023-07-24T13:02:38.150Z,32.36
2023-07-24T13:05:06.600Z,32.40
2023-07-24T13:07:34.853Z,32.42
2023-07-24T13:10:02.991Z,32.50
2023-07-24T13:12:31.466Z,32.60
2023-07-24T13:14:59.518Z,32.52
2023-07-24T13:17:27.841Z,32.50
2023-07-24T13:19:56.264Z,32.38
2023-07-24T13:22:24.466Z,32.24
2023-07-24T13:24:52.710Z,32.12
2023-07-24T13:27:20.998Z,32.10
2023-07-24T13:29:52.239Z,32.10
2023-07-24T13:32:20.437Z,32.30
2023-07-24T13:34:49.206Z,32.30
2023-07-24T13:37:17.218Z,32.40
2023-07-24T13:39:45.269Z,32.50
2023-07-24T13:42:13.285Z,32.60
2023-07-24T13:44:41.450Z,32.78
2023-07-24T13:47:09.622Z,32.90
2023-07-24T13:49:37.722Z,33.00
2023-07-24T13:52:05.867Z,33.08
2023-07-24T13:54:34.113Z,32.98
2023-07-24T13:57:02.318Z,32.86
2023-07-24T13:59:30.623Z,32.76
2023-07-24T14:01:58.730Z,32.70
2023-07-24T14:04:26.899Z,32.44
2023-07-24T14:06:55.010Z,32.22
2023-07-24T14:09:23.091Z,32.10
2023-07-24T14:11:51.187Z,31.98
2023-07-24T14:14:19.278Z,31.74
2023-07-24T14:16:47.340Z,31.70
2023-07-24T14:19:16.226Z,31.80
2023-07-24T14:21:45.573Z,31.80
2023-07-24T14:24:14.894Z,31.90
2023-07-24T14:26:43.090Z,31.90
2023-07-24T14:29:11.276Z,31.80
2023-07-24T14:31:42.217Z,31.80
2023-07-24T14:34:13.813Z,31.80
2023-07-24T14:36:44.968Z,31.78
2023-07-24T14:39:12.956Z,31.60
2023-07-24T14:41:41.109Z,31.40
2023-07-24T14:44:12.055Z,31.16
2023-07-24T14:46:49.351Z,30.94
2023-07-24T14:49:17.427Z,30.70
2023-07-24T14:51:45.780Z,30.58
2023-07-24T14:54:16.674Z,30.48
2023-07-24T14:56:57.013Z,30.30
2023-07-24T14:59:30.603Z,30.18
2023-07-24T15:02:01.580Z,30.10
2023-07-24T15:04:29.868Z,30.10
2023-07-24T15:07:03.727Z,30.10
2023-07-24T15:09:34.642Z,30.00
2023-07-24T15:12:02.971Z,29.92
2023-07-24T15:14:31.136Z,29.90
2023-07-24T15:16:59.551Z,29.80
2023-07-24T15:19:27.772Z,29.76
2023-07-24T15:21:56.093Z,29.80
2023-07-24T15:24:27.363Z,29.80
2023-07-24T15:26:55.695Z,29.70
2023-07-24T15:29:23.950Z,29.64
2023-07-24T15:31:52.108Z,29.60
2023-07-24T15:34:22.786Z,29.60
2023-07-24T15:36:50.866Z,29.60
2023-07-24T15:39:19.184Z,29.50
2023-07-24T15:41:49.456Z,29.50
2023-07-24T15:44:17.596Z,29.42
2023-07-24T15:46:48.258Z,29.40
2023-07-24T15:49:16.626Z,29.40
2023-07-24T15:51:45.007Z,29.30
2023-07-24T15:54:13.186Z,29.30
2023-07-24T15:56:41.608Z,29.20
2023-07-24T15:59:12.579Z,29.16
2023-07-24T16:01:41.018Z,29.10
2023-07-24T16:04:09.293Z,29.00
2023-07-24T16:06:46.485Z,28.90
2023-07-24T16:09:14.843Z,28.80
2023-07-24T16:11:45.397Z,28.80
2023-07-24T16:14:15.739Z,28.80
2023-07-24T16:16:44.055Z,28.76
2023-07-24T16:19:22.582Z,28.70
2023-07-24T16:21:51.464Z,28.66
2023-07-24T16:24:49.782Z,28.60
2023-07-24T16:27:40.389Z,28.60
2023-07-24T16:30:12.896Z,28.50
2023-07-24T16:32:49.905Z,28.50
2023-07-24T16:35:19.432Z,28.50
2023-07-24T16:37:55.631Z,28.48
2023-07-24T16:40:36.481Z,28.40
2023-07-24T16:43:05.176Z,28.32
2023-07-24T16:48:45.098Z,28.30
2023-07-24T16:51:18.878Z,28.30
2023-07-24T16:54:07.092Z,28.30
2023-07-24T16:56:44.102Z,28.30
2023-07-24T16:59:34.984Z,28.28
2023-07-24T17:02:13.448Z,28.20
2023-07-24T17:04:42.016Z,28.20
2023-07-24T17:07:19.202Z,28.12
2023-07-24T17:09:50.863Z,28.10
2023-07-24T17:12:37.894Z,28.00
2023-07-24T17:15:08.845Z,28.00
2023-07-24T17:17:57.392Z,27.90
2023-07-24T17:20:28.515Z,27.90
2023-07-24T17:22:59.821Z,27.86
2023-07-24T17:25:37.144Z,27.74
2023-07-24T17:28:06.084Z,27.70
2023-07-24T17:30:47.991Z,27.64
2023-07-24T17:33:23.438Z,27.60
2023-07-24T17:36:07.001Z,27.50
2023-07-24T17:38:35.299Z,27.40
2023-07-24T17:41:31.608Z,27.30
2023-07-24T17:44:05.681Z,27.20
2023-07-24T17:46:36.549Z,27.10
2023-07-24T17:49:30.382Z,27.00
2023-07-24T17:52:06.440Z,26.90
2023-07-24T17:54:34.851Z,26.82
2023-07-24T17:57:54.864Z,26.72
2023-07-24T18:00:30.744Z,26.60
2023-07-24T18:03:04.564Z,26.50
2023-07-24T18:05:35.757Z,26.40
2023-07-24T18:08:14.146Z,26.28
2023-07-24T18:10:58.926Z,26.10
2023-07-24T18:13:35.959Z,26.04
2023-07-24T18:16:36.126Z,25.96
2023-07-24T18:19:09.871Z,25.90
2023-07-24T18:21:48.178Z,25.84
2023-07-24T18:24:30.536Z,25.80
2023-07-24T18:27:09.855Z,25.78
2023-07-24T18:29:46.036Z,25.80
2023-07-24T18:32:30.248Z,25.80
2023-07-24T18:34:59.031Z,25.80
2023-07-24T18:37:29.814Z,25.78
2023-07-24T18:40:06.590Z,25.70
2023-07-24T18:43:17.750Z,25.70
2023-07-24T18:46:06.509Z,25.60
2023-07-24T18:49:06.956Z,25.54
2023-07-24T18:52:01.131Z,25.50
2023-07-24T18:54:52.476Z,25.50
2023-07-24T18:57:34.095Z,25.50
2023-07-24T19:00:18.813Z,25.48
2023-07-24T19:03:07.633Z,25.40
2023-07-24T19:05:36.014Z,25.40
2023-07-24T19:08:13.650Z,25.32
2023-07-24T19:10:49.208Z,25.30
2023-07-24T19:13:29.453Z,25.30
2023-07-24T19:16:01.402Z,25.30
2023-07-24T19:19:05.631Z,25.30
2023-07-24T19:21:59.733Z,25.30
2023-07-24T19:24:39.990Z,25.30
2023-07-24T19:27:11.579Z,25.30
2023-07-24T19:30:00.284Z,25.20
2023-07-24T19:32:59.386Z,25.10
2023-07-24T19:35:56.822Z,25.00
2023-07-24T19:38:25.171Z,24.90
2023-07-24T19:41:19.207Z,24.78
2023-07-24T19:43:52.891Z,24.70
2023-07-24T19:46:48.820Z,24.70
2023-07-24T19:49:41.613Z,24.60
2023-07-24T19:52:39.309Z,24.60
2023-07-24T19:55:35.969Z,24.42
2023-07-24T19:58:30.626Z,24.30
2023-07-24T20:01:42.105Z,24.22
2023-07-24T20:04:37.704Z,24.20
2023-07-24T20:07:46.576Z,24.10
2023-07-24T20:10:22.421Z,24.10
2023-07-24T20:13:19.733Z,24.10
2023-07-24T20:16:39.559Z,24.10
2023-07-24T20:19:16.439Z,24.08
2023-07-24T20:22:04.372Z,24.00
2023-07-24T20:25:02.586Z,23.94
2023-07-24T20:28:37.114Z,23.80
2023-07-24T20:31:15.309Z,23.68
2023-07-24T20:34:19.401Z,23.60
2023-07-24T20:37:36.861Z,23.50
2023-07-24T20:40:13.916Z,23.40
2023-07-24T20:43:23.407Z,23.30
2023-07-24T20:46:21.067Z,23.30
2023-07-24T20:49:42.998Z,23.22
2023-07-24T20:52:34.031Z,23.14
2023-07-24T20:55:42.692Z,23.10
2023-07-24T20:58:35.029Z,23.10
2023-07-24T21:01:47.582Z,23.00
2023-07-24T21:05:24.223Z,22.90
2023-07-24T21:08:32.993Z,22.84
2023-07-24T21:12:01.937Z,22.80
2023-07-24T21:15:33.226Z,22.72
2023-07-24T21:19:22.168Z,22.70
2023-07-24T21:22:17.771Z,22.50
2023-07-24T21:25:21.286Z,22.40
2023-07-24T21:28:51.724Z,22.40
2023-07-24T21:32:12.548Z,22.40
2023-07-24T21:35:44.627Z,22.40
2023-07-24T21:38:21.167Z,22.30
2023-07-24T21:41:24.811Z,22.30
2023-07-24T21:45:05.388Z,22.30
2023-07-24T21:48:06.964Z,22.30
2023-07-24T21:51:02.632Z,22.30
2023-07-24T21:54:19.557Z,22.30
2023-07-24T21:57:30.020Z,22.30
2023-07-24T22:00:19.271Z,22.30
2023-07-24T22:03:30.910Z,22.40
2023-07-24T22:07:02.144Z,22.30
2023-07-24T22:10:24.732Z,22.30
2023-07-24T22:13:43.845Z,22.26
2023-07-24T22:16:57.385Z,22.20
2023-07-24T22:20:30.914Z,22.20
2023-07-24T22:23:43.437Z,22.10
2023-07-24T22:26:47.778Z,22.10
2023-07-24T22:30:36.911Z,22.08
2023-07-24T22:34:14.921Z,22.00
2023-07-24T22:37:38.569Z,21.90
2023-07-24T22:41:14.923Z,21.90
2023-07-24T22:44:43.523Z,21.80
2023-07-24T22:47:52.226Z,21.76
2023-07-24T22:51:24.150Z,21.80
2023-07-24T22:55:13.407Z,21.80
2023-07-24T22:58:42.231Z,21.80
2023-07-24T23:02:03.869Z,21.80
2023-07-24T23:05:15.224Z,21.84
2023-07-24T23:08:44.283Z,21.70
2023-07-24T23:12:16.168Z,21.70
2023-07-24T23:15:45.205Z,21.64
2023-07-24T23:18:34.776Z,21.60
2023-07-24T23:22:23.812Z,21.60
2023-07-24T23:25:51.721Z,21.50
2023-07-24T23:29:30.862Z,21.56
2023-07-24T23:33:20.082Z,21.60
2023-07-24T23:37:09.122Z,21.60
2023-07-24T23:40:49.370Z,21.50
2023-07-24T23:43:57.756Z,21.50
2023-07-24T23:47:11.653Z,21.40
2023-07-24T23:50:43.607Z,21.40
2023-07-24T23:53:42.738Z,21.40
2023-07-24T23:57:05.047Z,21.32
